Radome Status


Time Cell Pressure Wind mph Temp Com Gen Blower 1 Blower 2 Blower 3 Trigger Alarms Txt
Local net InWc Avg Peak Avg F Pow Pow State/Spd/Secs State/Spd/Secs HowOn/AcOut/secs Event Present Cnt
00:00:51OFF 2.63 2.5 1.7 2.8 46.18ONOFFDwn/0/0Opr/1/89634-AC-OFF/0///0
00:01:54OFF 2.63 2.5 1.1 2.1 46.10ONOFFDwn/0/0Opr/1/89699-AC-OFF/0///0
00:02:54OFF 2.63 2.5 0.9 3.2 46.00ONOFFDwn/0/0Opr/1/89759-AC-OFF/0///0
00:03:54OFF 2.64 2.5 0.5 1.1 45.86ONOFFDwn/0/0Opr/1/89819-AC-OFF/0///0
00:04:54OFF 2.66 2.5 0.7 1.1 45.73ONOFFDwn/0/0Opr/1/89879-AC-OFF/0///0
00:05:54OFF 2.64 2.5 0.4 1.1 45.61ONOFFDwn/0/0Opr/1/89939-AC-OFF/0///0
00:06:55OFF 2.64 2.5 0.7 1.4 45.50ONOFFDwn/0/0Opr/1/90000-AC-OFF/0///0
00:07:55OFF 2.65 2.5 0.4 1.4 45.41ONOFFDwn/0/0Opr/1/90060-AC-OFF/0///0
00:08:56OFF 2.62 2.5 0.8 3.2 45.33ONOFFDwn/0/0Opr/1/90121-AC-OFF/0///0
00:09:56OFF 2.67 2.6 1.8 2.8 45.26ONOFFDwn/0/0Opr/1/90181-AC-OFF/0///0
00:10:56OFF 2.64 2.5 3.3 3.8 45.14ONOFFDwn/0/0Opr/1/90241-AC-OFF/0///0
00:11:56OFF 2.64 2.5 3.8 4.5 44.96ONOFFDwn/0/0Opr/1/90301-AC-OFF/0///0
00:12:56OFF 2.62 2.5 2.8 3.8 44.91ONOFFDwn/0/0Opr/1/90361-AC-OFF/0///0
00:13:56OFF 2.64 2.5 1.4 2.1 44.89ONOFFDwn/0/0Opr/1/90421-AC-OFF/0///0
00:14:56OFF 2.62 2.5 1.4 3.2 44.85ONOFFDwn/0/0Opr/1/90481-AC-OFF/0///0
00:15:56OFF 2.64 2.5 3.2 3.5 44.78ONOFFDwn/0/0Opr/1/90541-AC-OFF/0///0
00:16:56OFF 2.65 2.5 4.1 4.9 44.73ONOFFDwn/0/0Opr/1/90601-AC-OFF/0///0
00:17:56OFF 2.64 2.5 5.1 5.9 44.73ONOFFDwn/0/0Opr/1/90661-AC-OFF/0///0
00:18:56OFF 2.62 2.5 6.2 6.6 44.83ONOFFDwn/0/0Opr/1/90721-AC-OFF/0///0
00:19:56OFF 2.62 2.5 5.1 6.9 44.97ONOFFDwn/0/0Opr/1/90781-AC-OFF/0///0
00:20:56OFF 2.64 2.5 2.9 4.2 45.08ONOFFDwn/0/0Opr/1/90841-AC-OFF/0///0
00:21:56OFF 2.63 2.5 2.8 3.8 45.12ONOFFDwn/0/0Opr/1/90901-AC-OFF/0///0
00:22:57OFF 2.63 2.5 3.3 4.5 45.12ONOFFDwn/0/0Opr/1/90962-AC-OFF/0///0
00:23:57OFF 2.64 2.5 1.0 2.5 45.06ONOFFDwn/0/0Opr/1/91022-AC-OFF/0///0
00:25:02OFF 2.65 2.6 0.2 0.4 44.98ONOFFDwn/0/0Opr/1/91087-AC-OFF/0///0
00:26:02OFF 2.65 2.5 1.1 2.5 44.91ONOFFDwn/0/0Opr/1/91147-AC-OFF/0///0
00:27:03OFF 2.65 2.5 0.3 2.1 44.88ONOFFDwn/0/0Opr/1/91208-AC-OFF/0///0
00:28:03OFF 2.65 2.5 0.3 1.1 44.83ONOFFDwn/0/0Opr/1/91268-AC-OFF/0///0
00:29:03OFF 2.65 2.6 0.5 1.4 44.77ONOFFDwn/0/0Opr/1/91328-AC-OFF/0///0
00:30:03OFF 2.65 2.6 1.0 2.1 44.72ONOFFDwn/0/0Opr/1/91388-AC-OFF/0///0
00:31:04OFF 2.65 2.6 0.8 2.1 44.69ONOFFDwn/0/0Opr/1/91449-AC-OFF/0///0
00:32:04OFF 2.64 2.5 1.2 2.8 44.67ONOFFDwn/0/0Opr/1/91509-AC-OFF/0///0
00:33:04OFF 2.64 2.6 0.8 1.8 44.65ONOFFDwn/0/0Opr/1/91569-AC-OFF/0///0
00:34:04OFF 2.63 2.5 1.3 2.1 44.63ONOFFDwn/0/0Opr/1/91629-AC-OFF/0///0
00:35:04OFF 2.64 2.5 0.8 1.8 44.62ONOFFDwn/0/0Opr/1/91689-AC-OFF/0///0
00:36:04OFF 2.65 2.5 0.5 1.1 44.58ONOFFDwn/0/0Opr/1/91749-AC-OFF/0///0
00:37:09OFF 2.65 2.6 0.3 1.1 44.50ONOFFDwn/0/0Opr/1/91814-AC-OFF/0///0
00:38:09OFF 2.65 2.5 0.9 1.4 44.43ONOFFDwn/0/0Opr/1/91874-AC-OFF/0///0
00:39:09OFF 2.65 2.6 1.8 4.5 44.38ONOFFDwn/0/0Opr/1/91934-AC-OFF/0///0
00:40:09OFF 2.62 2.5 4.2 5.2 44.40ONOFFDwn/0/0Opr/1/91994-AC-OFF/0///0
00:41:14OFF 2.63 2.5 3.2 3.5 44.41ONOFFDwn/0/0Opr/1/92059-AC-OFF/0///0
00:42:14OFF 2.64 2.5 1.9 2.8 44.38ONOFFDwn/0/0Opr/1/92119-AC-OFF/0///0
00:43:14OFF 2.65 2.6 2.9 4.2 44.37ONOFFDwn/0/0Opr/1/92179-AC-OFF/0///0
00:44:15OFF 2.66 2.6 3.0 3.8 44.33ONOFFDwn/0/0Opr/1/92240-AC-OFF/0///0
00:45:15OFF 2.67 2.6 3.5 4.2 44.26ONOFFDwn/0/0Opr/1/92300-AC-OFF/0///0
00:46:15OFF 2.66 2.6 4.2 5.2 44.34ONOFFDwn/0/0Opr/1/92360-AC-OFF/0///0
00:47:15OFF 2.66 2.6 1.6 5.6 44.48ONOFFDwn/0/0Opr/1/92420-AC-OFF/0///0
00:48:15OFF 2.65 2.6 0.4 1.4 44.54ONOFFDwn/0/0Opr/1/92480-AC-OFF/0///0
00:49:15OFF 2.64 2.6 0.4 1.1 44.59ONOFFDwn/0/0Opr/1/92540-AC-OFF/0///0
00:50:15OFF 2.65 2.6 1.7 3.2 44.65ONOFFDwn/0/0Opr/1/92600-AC-OFF/0///0
00:51:16OFF 2.66 2.6 0.8 2.1 44.72ONOFFDwn/0/0Opr/1/92661-AC-OFF/0///0
00:52:16OFF 2.64 2.5 0.3 1.1 44.76ONOFFDwn/0/0Opr/1/92721-AC-OFF/0///0
00:53:16OFF 2.64 2.5 0.5 1.1 44.71ONOFFDwn/0/0Opr/1/92781-AC-OFF/0///0
00:54:16OFF 2.65 2.6 1.0 1.4 44.60ONOFFDwn/0/0Opr/1/92841-AC-OFF/0///0
00:55:16OFF 2.66 2.6 0.7 2.1 44.50ONOFFDwn/0/0Opr/1/92901-AC-OFF/0///0
00:56:16OFF 2.67 2.6 1.5 3.2 44.45ONOFFDwn/0/0Opr/1/92961-AC-OFF/0///0
00:57:16OFF 2.67 2.6 0.6 1.4 44.43ONOFFDwn/0/0Opr/1/93022-AC-OFF/0///0
00:58:17OFF 2.65 2.6 0.7 1.8 44.37ONOFFDwn/0/0Opr/1/93082-AC-OFF/0///0
00:59:17OFF 2.65 2.6 0.7 2.5 44.27ONOFFDwn/0/0Opr/1/93142-AC-OFF/0///0
01:00:17OFF 2.66 2.6 0.3 2.1 44.20ONOFFDwn/0/0Opr/1/93202-AC-OFF/0///0
01:01:17OFF 2.66 2.6 0.1 1.1 44.13ONOFFDwn/0/0Opr/1/93262-AC-OFF/0///0
01:02:17OFF 2.67 2.6 0.1 0.4 44.04ONOFFDwn/0/0Opr/1/93322-AC-OFF/0///0
01:03:17OFF 2.67 2.6 0.0 0.0 43.90ONOFFDwn/0/0Opr/1/93382-AC-OFF/0///0
01:04:18OFF 2.66 2.6 0.0 0.0 43.75ONOFFDwn/0/0Opr/1/93443-AC-OFF/0///0
01:05:18OFF 2.68 2.6 0.0 0.0 43.64ONOFFDwn/0/0Opr/1/93503-AC-OFF/0///0
01:06:19OFF 2.67 2.6 0.3 0.8 43.57ONOFFDwn/0/0Opr/1/93564-AC-OFF/0///0
01:07:19OFF 2.69 2.6 0.4 1.1 43.47ONOFFDwn/0/0Opr/1/93624-AC-OFF/0///0
01:08:19OFF 2.69 2.6 0.6 1.4 43.33ONOFFDwn/0/0Opr/1/93684-AC-OFF/0///0
01:09:19OFF 2.68 2.6 0.8 1.8 43.21ONOFFDwn/0/0Opr/1/93744-AC-OFF/0///0
01:10:19OFF 2.67 2.6 0.0 0.0 43.20ONOFFDwn/0/0Opr/1/93804-AC-OFF/0///0
01:11:19OFF 2.67 2.6 0.0 0.0 43.23ONOFFDwn/0/0Opr/1/93864-AC-OFF/0///0
01:12:19OFF 2.66 2.6 0.0 0.0 43.29ONOFFDwn/0/0Opr/1/93924-AC-OFF/0///0
01:13:19OFF 2.67 2.6 0.0 0.0 43.37ONOFFDwn/0/0Opr/1/93984-AC-OFF/0///0
01:14:19OFF 2.67 2.6 0.0 0.0 43.41ONOFFDwn/0/0Opr/1/94044-AC-OFF/0///0
01:15:19OFF 2.69 2.6 0.0 0.0 43.45ONOFFDwn/0/0Opr/1/94104-AC-OFF/0///0
01:16:19OFF 2.69 2.6 0.0 0.0 43.53ONOFFDwn/0/0Opr/1/94164-AC-OFF/0///0
01:17:19OFF 2.66 2.6 0.0 0.0 43.76ONOFFDwn/0/0Opr/1/94224-AC-OFF/0///0
01:18:19OFF 2.66 2.6 0.0 0.0 43.93ONOFFDwn/0/0Opr/1/94284-AC-OFF/0///0
01:19:19OFF 2.67 2.6 0.0 0.4 43.94ONOFFDwn/0/0Opr/1/94344-AC-OFF/0///0
01:20:20OFF 2.67 2.6 0.0 0.0 43.80ONOFFDwn/0/0Opr/1/94404-AC-OFF/0///0
01:21:24OFF 2.68 2.6 0.1 1.1 43.65ONOFFDwn/0/0Opr/1/94469-AC-OFF/0///0
01:22:24OFF 2.70 2.6 1.0 1.4 43.69ONOFFDwn/0/0Opr/1/94529-AC-OFF/0///0
01:23:24OFF 2.68 2.6 1.3 2.1 44.06ONOFFDwn/0/0Opr/1/94589-AC-OFF/0///0
01:24:29OFF 2.68 2.6 1.8 2.1 44.62ONOFFDwn/0/0Opr/1/94654-AC-OFF/0///0
01:25:29OFF 2.66 2.6 1.5 1.8 45.19ONOFFDwn/0/0Opr/1/94714-AC-OFF/0///0
01:26:29OFF 2.66 2.6 0.3 0.8 45.64ONOFFDwn/0/0Opr/1/94774-AC-OFF/0///0
01:27:29OFF 2.67 2.6 0.0 0.0 45.79ONOFFDwn/0/0Opr/1/94834-AC-OFF/0///0
01:28:29OFF 2.67 2.6 0.0 0.4 45.69ONOFFDwn/0/0Opr/1/94894-AC-OFF/0///0
01:29:29OFF 2.66 2.6 0.0 0.0 45.34ONOFFDwn/0/0Opr/1/94954-AC-OFF/0///0
01:30:29OFF 2.66 2.6 0.1 0.4 44.80ONOFFDwn/0/0Opr/1/95014-AC-OFF/0///0
01:31:29OFF 2.67 2.6 0.0 0.0 44.19ONOFFDwn/0/0Opr/1/95074-AC-OFF/0///0
01:32:29OFF 2.69 2.6 0.1 1.1 43.69ONOFFDwn/0/0Opr/1/95134-AC-OFF/0///0


File ends on 20140425
Logs also available for previous period,
or for other periods.

Blower States: Reseting, Stopped, Starting, Testing, Operating, Faulted, OffLine

Comments/Questions